Time;durP1;ratioP1;P1;durP2;ratioP2;P2;SDS_P1;SDS_P2;PMS_P1;PMS_P2;Temp;Humidity;BMP_temperature;BMP_pressure;BME280_temperature;BME280_humidity;BME280_pressure;Samples;Min_cycle;Max_cycle;Signal;HPM_P1;HPM_P2
2022/03/29 00:01:18;;;;;;;5.40;1.98;;;20.60;99.90;;;;;;5036289;28;20025;-78
2022/03/29 00:03:46;;;;;;;6.22;1.95;;;20.60;99.90;;;;;;5036315;28;20024;-78
2022/03/29 00:06:13;;;;;;;6.75;2.70;;;20.60;99.90;;;;;;5036245;28;20029;-78
2022/03/29 00:08:41;;;;;;;7.35;2.42;;;20.80;99.90;;;;;;5036344;28;20025;-78
2022/03/29 00:11:08;;;;;;;6.55;2.10;;;20.80;99.90;;;;;;5036342;28;20136;-79
2022/03/29 00:13:36;;;;;;;6.47;1.80;;;20.80;99.90;;;;;;5036276;28;20048;-79
2022/03/29 00:16:03;;;;;;;5.78;1.88;;;20.90;99.90;;;;;;5036227;28;20033;-79
2022/03/29 00:18:30;;;;;;;5.07;1.80;;;20.90;99.90;;;;;;5036225;28;20025;-79
2022/03/29 00:20:58;;;;;;;6.60;2.70;;;20.90;99.90;;;;;;5036108;28;20025;-78
2022/03/29 00:23:25;;;;;;;7.05;2.08;;;20.90;99.90;;;;;;5036163;28;20516;-79
2022/03/29 00:25:52;;;;;;;9.95;2.63;;;21.00;99.90;;;;;;5053299;28;20013;-78
2022/03/29 00:28:20;;;;;;;4.15;1.40;;;21.10;99.90;;;;;;5035873;28;20021;-77
2022/03/29 00:30:47;;;;;;;6.97;1.73;;;21.10;99.90;;;;;;5053762;28;20017;-77
2022/03/29 00:33:15;;;;;;;3.75;1.42;;;21.20;99.90;;;;;;5035702;28;20052;-78
2022/03/29 00:35:42;;;;;;;5.68;1.80;;;21.20;99.90;;;;;;5035811;28;20383;-77
2022/03/29 00:38:10;;;;;;;4.85;1.92;;;21.20;99.90;;;;;;5035731;28;20119;-79
2022/03/29 00:40:37;;;;;;;5.05;2.08;;;21.20;99.90;;;;;;5036180;28;20033;-80
2022/03/29 00:43:08;;;;;;;5.70;2.15;;;21.30;99.90;;;;;;5038435;28;20124;-81
2022/03/29 00:45:36;;;;;;;7.45;2.10;;;21.50;99.90;;;;;;5054856;28;20036;-82
2022/03/29 00:48:06;;;;;;;6.93;2.08;;;21.70;99.90;;;;;;5036404;28;20164;-82
2022/03/29 00:50:34;;;;;;;7.75;2.65;;;21.60;99.90;;;;;;5036403;28;20036;-83
2022/03/29 00:53:18;;;;;;;7.35;2.10;;;21.70;99.90;;;;;;5056158;28;20025;-82
2022/03/29 00:55:48;;;;;;;4.47;2.00;;;21.80;99.90;;;;;;5022783;28;20544;-82
2022/03/29 00:58:17;;;;;;;5.67;1.40;;;21.90;99.90;;;;;;5055705;28;20021;-82
2022/03/29 01:00:46;;;;;;;3.80;1.85;;;21.70;99.90;;;;;;5037945;28;20032;-82
2022/03/29 01:03:15;;;;;;;4.68;1.80;;;21.90;99.90;;;;;;5037189;28;20102;-82
2022/03/29 01:05:43;;;;;;;3.88;1.98;;;21.90;99.90;;;;;;5037600;28;20025;-81
2022/03/29 01:08:10;;;;;;;6.28;2.03;;;22.00;99.90;;;;;;5042177;28;20033;-82
2022/03/29 01:10:38;;;;;;;4.22;1.83;;;22.10;99.90;;;;;;5042233;28;20021;-82
2022/03/29 01:13:07;;;;;;;;;;;21.90;99.90;;;;;;5066168;28;20493;-83
2022/03/29 01:15:40;;;;;;;5.20;2.17;;;21.80;99.90;;;;;;5056606;28;19903;-81
2022/03/29 01:18:08;;;;;;;6.63;2.47;;;21.80;99.90;;;;;;5132925;23;20054;-83
2022/03/29 01:20:37;;;;;;;5.65;2.00;;;21.80;99.90;;;;;;5017901;28;20079;-80
2022/03/29 01:23:07;;;;;;;5.15;2.30;;;21.80;99.90;;;;;;5032862;28;20018;-77
2022/03/29 01:25:43;;;;;;;7.05;2.40;;;21.90;99.90;;;;;;5032905;28;20397;-76
2022/03/29 01:28:12;;;;;;;6.13;2.88;;;21.90;99.90;;;;;;5032643;28;20025;-76
2022/03/29 01:30:40;;;;;;;7.57;2.70;;;22.00;99.90;;;;;;5032791;28;20014;-76
2022/03/29 01:33:09;;;;;;;5.05;2.00;;;22.10;99.90;;;;;;5014826;28;20029;-76
2022/03/29 01:35:37;;;;;;;3.92;1.60;;;22.10;99.90;;;;;;5032677;28;20018;-76
2022/03/29 01:38:05;;;;;;;4.05;2.10;;;22.20;99.90;;;;;;5031988;28;20166;-77
2022/03/29 01:40:32;;;;;;;5.13;2.03;;;22.00;99.90;;;;;;5032773;28;20458;-77
2022/03/29 01:43:02;;;;;;;4.22;2.22;;;22.10;99.90;;;;;;5032520;28;20079;-75
2022/03/29 01:45:31;;;;;;;7.97;2.37;;;22.30;99.90;;;;;;5014735;28;20030;-76
2022/03/29 01:47:59;;;;;;;4.60;2.60;;;22.60;99.90;;;;;;5032406;28;20026;-75
2022/03/29 01:50:27;;;;;;;3.80;2.45;;;23.00;99.90;;;;;;5014678;28;20466;-76
2022/03/29 01:52:54;;;;;;;6.03;3.10;;;23.30;99.90;;;;;;5032403;28;20022;-75
2022/03/29 01:55:23;;;;;;;4.25;2.38;;;23.40;99.90;;;;;;5032312;28;20062;-76
2022/03/29 01:57:53;;;;;;;6.20;1.85;;;23.20;99.90;;;;;;5032401;28;20083;-76
2022/03/29 02:00:33;;;;;;;5.13;2.27;;;23.30;99.90;;;;;;5014677;28;20119;-74
2022/03/29 02:03:02;;;;;;;;;;;23.50;99.90;;;;;;5032810;28;20032;-76
2022/03/29 02:05:33;;;;;;;4.05;1.95;;;23.60;99.90;;;;;;5050171;28;19930;-76
2022/03/29 02:08:01;;;;;;;4.88;1.85;;;23.70;99.90;;;;;;5053105;28;20021;-78
2022/03/29 02:10:29;;;;;;;4.35;1.70;;;23.80;99.90;;;;;;5034368;28;20068;-77
2022/03/29 02:12:57;;;;;;;2.50;1.13;;;24.20;99.90;;;;;;5052172;28;20028;-76
2022/03/29 02:15:25;;;;;;;2.90;1.40;;;24.10;99.90;;;;;;5052022;28;20522;-78
2022/03/29 02:17:52;;;;;;;4.03;1.80;;;24.20;99.90;;;;;;5051942;28;20045;-76
2022/03/29 02:20:22;;;;;;;3.28;1.60;;;24.00;99.90;;;;;;5051955;28;20056;-76
2022/03/29 02:22:50;;;;;;;3.15;1.42;;;24.00;99.90;;;;;;5034361;28;20481;-76
2022/03/29 02:25:18;;;;;;;2.75;1.65;;;24.00;99.90;;;;;;5051847;28;20021;-76
2022/03/29 02:27:46;;;;;;;3.25;1.00;;;24.20;99.90;;;;;;5051947;28;20021;-76
2022/03/29 02:30:15;;;;;;;2.75;1.30;;;24.20;99.90;;;;;;5033927;28;20021;-76
2022/03/29 02:32:43;;;;;;;3.40;1.20;;;24.00;99.90;;;;;;5033913;28;20017;-77
2022/03/29 02:35:11;;;;;;;2.83;1.20;;;24.20;99.90;;;;;;5033891;28;20429;-77
2022/03/29 02:37:38;;;;;;;3.15;1.50;;;24.00;99.90;;;;;;5051991;28;20496;-77
2022/03/29 02:40:06;;;;;;;4.22;1.40;;;24.00;99.90;;;;;;5051746;28;20055;-77
2022/03/29 02:42:44;;;;;;;1.63;0.98;;;23.90;99.90;;;;;;5033959;28;20031;-77
2022/03/29 02:45:19;;;;;;;2.85;1.10;;;23.80;99.90;;;;;;5051765;28;20493;-77
2022/03/29 02:47:51;;;;;;;3.13;1.10;;;23.70;99.90;;;;;;5033808;28;20025;-77
2022/03/29 02:50:20;;;;;;;4.10;1.27;;;23.40;99.90;;;;;;5037562;28;20424;-77
2022/03/29 02:52:49;;;;;;;1.70;0.93;;;23.40;99.90;;;;;;5037722;28;20436;-77
2022/03/29 02:55:18;;;;;;;2.10;1.17;;;23.30;99.90;;;;;;5055381;28;20056;-77
2022/03/29 02:57:46;;;;;;;2.25;0.93;;;23.30;99.90;;;;;;5055399;28;20481;-77
2022/03/29 03:00:16;;;;;;;1.90;1.15;;;23.20;99.90;;;;;;5037431;28;20028;-78
2022/03/29 03:02:55;;;;;;;1.40;0.90;;;23.40;99.90;;;;;;5055454;28;20482;-75
2022/03/29 03:05:25;;;;;;;2.00;0.90;;;23.50;99.90;;;;;;5055186;28;20517;-75
2022/03/29 03:07:52;;;;;;;;;;;23.70;99.90;;;;;;5037696;28;20060;-75
2022/03/29 03:10:19;;;;;;;2.70;0.82;;;23.90;99.90;;;;;;5055038;28;20423;-75
2022/03/29 03:12:49;;;;;;;2.28;0.73;;;23.80;99.90;;;;;;5055137;28;20072;-75
2022/03/29 03:15:19;;;;;;;4.18;1.00;;;23.90;99.90;;;;;;5055113;28;20031;-75
2022/03/29 03:17:46;;;;;;;5.10;1.02;;;24.10;99.90;;;;;;5036990;28;20523;-75
2022/03/29 03:20:14;;;;;;;3.63;0.60;;;24.20;99.90;;;;;;5055059;28;20078;-75
2022/03/29 03:22:42;;;;;;;3.60;0.70;;;24.20;99.90;;;;;;5054952;28;20032;-75
2022/03/29 03:25:10;;;;;;;2.75;0.80;;;24.20;99.90;;;;;;5054969;28;20032;-75
2022/03/29 03:27:40;;;;;;;2.38;0.68;;;24.10;99.90;;;;;;5036728;28;20032;-75
2022/03/29 03:30:11;;;;;;;5.07;1.02;;;24.00;99.90;;;;;;5054829;28;20047;-75
2022/03/29 03:32:39;;;;;;;2.72;1.02;;;23.80;99.90;;;;;;5036930;28;20110;-75
2022/03/29 03:35:08;;;;;;;2.85;0.90;;;23.80;99.90;;;;;;5036979;28;20021;-75
2022/03/29 03:37:35;;;;;;;4.88;0.77;;;23.80;99.90;;;;;;5054649;28;20029;-75
2022/03/29 03:40:04;;;;;;;2.92;0.55;;;23.70;99.90;;;;;;5036871;28;20028;-75
2022/03/29 03:42:32;;;;;;;4.45;0.95;;;23.60;99.90;;;;;;5054523;28;20492;-75
2022/03/29 03:45:02;;;;;;;3.97;1.15;;;23.60;99.90;;;;;;5054577;28;20474;-74
2022/03/29 03:47:30;;;;;;;2.00;0.60;;;23.60;99.90;;;;;;5054433;28;20025;-74
2022/03/29 03:49:57;;;;;;;4.72;0.90;;;23.50;99.90;;;;;;5054509;28;20469;-74
2022/03/29 03:52:25;;;;;;;4.30;1.00;;;23.60;99.90;;;;;;5036484;28;20025;-74
2022/03/29 03:54:54;;;;;;;4.05;1.10;;;23.70;99.90;;;;;;5036596;28;20068;-74
2022/03/29 03:57:21;;;;;;;4.20;0.70;;;23.70;99.90;;;;;;5054304;28;20096;-74
2022/03/29 03:59:51;;;;;;;2.55;0.50;;;23.70;99.90;;;;;;5035732;28;20032;-74
2022/03/29 04:02:19;;;;;;;4.37;0.77;;;23.70;99.90;;;;;;5054278;28;20025;-74
2022/03/29 04:04:47;;;;;;;3.28;0.70;;;23.70;99.90;;;;;;5036288;28;20265;-74
2022/03/29 04:07:14;;;;;;;4.25;0.60;;;23.70;99.90;;;;;;5054004;28;20400;-74
2022/03/29 04:09:42;;;;;;;2.88;0.60;;;23.60;99.90;;;;;;5054173;28;20440;-75
2022/03/29 04:12:10;;;;;;;4.35;0.93;;;23.60;99.90;;;;;;5054090;28;20022;-74
2022/03/29 04:14:37;;;;;;;4.65;0.60;;;23.70;99.90;;;;;;5054132;28;20013;-75
2022/03/29 04:17:05;;;;;;;4.13;0.75;;;23.60;99.90;;;;;;5053648;28;20107;-75
2022/03/29 04:19:33;;;;;;;4.05;0.50;;;23.50;99.90;;;;;;5053932;28;20033;-75
2022/03/29 04:22:00;;;;;;;3.47;0.85;;;23.50;99.90;;;;;;5035920;28;20021;-75
2022/03/29 04:24:28;;;;;;;1.55;0.50;;;23.20;99.90;;;;;;5035812;28;20127;-75
2022/03/29 04:26:55;;;;;;;4.43;0.93;;;23.10;99.90;;;;;;5035803;28;20029;-75
2022/03/29 04:29:23;;;;;;;6.70;1.10;;;22.90;99.90;;;;;;5035807;28;20021;-75
2022/03/29 04:31:52;;;;;;;3.88;0.80;;;22.60;99.90;;;;;;5035837;28;20025;-75
2022/03/29 04:34:19;;;;;;;5.38;1.00;;;22.50;99.90;;;;;;5053565;28;20028;-75
2022/03/29 04:36:47;;;;;;;2.30;0.65;;;22.40;99.90;;;;;;5053670;28;20390;-76
2022/03/29 04:39:14;;;;;;;5.78;1.00;;;22.60;99.90;;;;;;5053531;28;20021;-75
2022/03/29 04:41:42;;;;;;;3.65;0.88;;;22.80;99.90;;;;;;5035722;28;20075;-75
2022/03/29 04:44:09;;;;;;;4.25;0.68;;;22.80;99.90;;;;;;5053255;28;20029;-75
2022/03/29 04:46:36;;;;;;;5.68;1.00;;;22.80;99.90;;;;;;5053391;28;20025;-75
2022/03/29 04:49:04;;;;;;;2.75;0.60;;;22.80;99.90;;;;;;5053276;28;20480;-75
2022/03/29 04:51:33;;;;;;;3.80;0.60;;;23.00;99.90;;;;;;5053248;28;20485;-76
2022/03/29 04:54:01;;;;;;;3.67;0.70;;;23.10;99.90;;;;;;5053224;28;20023;-75
2022/03/29 04:56:29;;;;;;;3.67;0.93;;;23.00;99.90;;;;;;5035392;28;20383;-75
2022/03/29 04:58:57;;;;;;;4.00;0.70;;;23.20;99.90;;;;;;5035182;28;20027;-75
2022/03/29 05:01:24;;;;;;;4.10;0.85;;;23.30;99.90;;;;;;5053218;28;20035;-76
2022/03/29 05:03:52;;;;;;;3.92;0.70;;;23.50;99.90;;;;;;5052943;28;20059;-76
2022/03/29 05:06:19;;;;;;;3.30;0.73;;;23.60;99.90;;;;;;5053099;28;20025;-76
2022/03/29 05:08:46;;;;;;;4.15;0.75;;;23.70;99.90;;;;;;5052980;28;20051;-76
2022/03/29 05:11:14;;;;;;;3.88;0.60;;;24.00;99.90;;;;;;5035061;28;20025;-76
2022/03/29 05:13:41;;;;;;;4.63;0.85;;;23.80;99.90;;;;;;5052778;28;20032;-77
2022/03/29 05:16:08;;;;;;;3.10;0.40;;;24.00;99.90;;;;;;5034793;28;20020;-76
2022/03/29 05:18:36;;;;;;;2.70;0.63;;;24.00;99.90;;;;;;5034714;28;20075;-77
2022/03/29 05:21:03;;;;;;;2.38;0.47;;;24.10;99.90;;;;;;5034839;28;20036;-76
2022/03/29 05:23:31;;;;;;;1.45;0.60;;;24.20;99.90;;;;;;5034711;28;20516;-76
2022/03/29 05:25:58;;;;;;;2.15;0.55;;;24.10;99.90;;;;;;5052808;28;20545;-76
2022/03/29 05:28:25;;;;;;;2.97;0.50;;;24.10;99.90;;;;;;5034660;28;20031;-76
2022/03/29 05:30:53;;;;;;;2.58;0.40;;;23.90;99.90;;;;;;5052580;28;20027;-76
2022/03/29 05:33:20;;;;;;;3.33;0.50;;;23.90;99.90;;;;;;5052610;28;20037;-75
2022/03/29 05:35:47;;;;;;;2.58;0.57;;;24.00;99.90;;;;;;5052442;28;20481;-79
2022/03/29 05:38:15;;;;;;;2.47;0.60;;;24.00;99.90;;;;;;5034742;28;20115;-78
2022/03/29 05:40:42;;;;;;;2.95;0.68;;;24.10;99.90;;;;;;5052511;28;20542;-78
2022/03/29 05:43:11;;;;;;;2.33;0.52;;;24.10;99.90;;;;;;5034485;28;20106;-76
2022/03/29 05:45:44;;;;;;;2.67;0.68;;;24.20;99.90;;;;;;5034375;28;20036;-77
2022/03/29 05:50:56;;;;;;;4.25;0.98;;;23.90;99.90;;;;;;5052425;28;20070;-77
2022/03/29 05:53:24;;;;;;;4.13;1.10;;;24.00;99.90;;;;;;5034283;28;20056;-77
2022/03/29 05:55:51;;;;;;;3.65;0.80;;;24.00;99.90;;;;;;5052070;28;20044;-76
2022/03/29 05:58:20;;;;;;;4.38;1.08;;;23.90;99.90;;;;;;5052753;28;20029;-76
2022/03/29 06:00:47;;;;;;;5.22;1.13;;;23.90;99.90;;;;;;5034138;28;20436;-77
2022/03/29 06:03:14;;;;;;;6.40;1.10;;;23.80;99.90;;;;;;5034248;28;20052;-77
2022/03/29 06:05:44;;;;;;;4.25;1.10;;;23.70;99.90;;;;;;5034123;28;20116;-76
2022/03/29 06:08:11;;;;;;;4.60;1.10;;;23.60;99.90;;;;;;5034103;28;20044;-76
2022/03/29 06:10:38;;;;;;;13.43;4.85;;;23.70;99.90;;;;;;5051934;28;20026;-77
2022/03/29 06:13:08;;;;;;;589.72;392.08;;;23.60;99.90;;;;;;5051996;28;20021;-77
2022/03/29 06:15:36;;;;;;;309.05;190.32;;;23.60;99.90;;;;;;5034070;28;20029;-75
2022/03/29 06:18:04;;;;;;;510.67;344.33;;;23.60;99.90;;;;;;5033718;28;20436;-74
2022/03/29 06:20:32;;;;;;;217.48;135.18;;;23.70;99.90;;;;;;5051725;28;20032;-75
2022/03/29 06:22:59;;;;;;;191.05;115.93;;;23.60;99.90;;;;;;5052038;28;20501;-76
2022/03/29 06:25:27;;;;;;;102.93;60.75;;;23.60;99.90;;;;;;5055845;28;20044;-76
2022/03/29 06:27:55;;;;;;;46.55;26.85;;;23.60;99.90;;;;;;5055932;28;20389;-75
2022/03/29 06:30:22;;;;;;;106.20;64.25;;;23.50;99.90;;;;;;5055781;28;20017;-75
2022/03/29 06:32:54;;;;;;;23.85;14.98;;;23.50;99.90;;;;;;5037971;28;20021;-75
2022/03/29 06:35:26;;;;;;;39.95;23.98;;;23.50;99.90;;;;;;5055533;28;20017;-76
2022/03/29 06:37:55;;;;;;;8.18;3.15;;;23.40;99.90;;;;;;5037770;28;20043;-75
2022/03/29 06:40:24;;;;;;;23.30;11.98;;;23.30;99.90;;;;;;5055592;28;20063;-76
2022/03/29 06:42:53;;;;;;;24.15;12.85;;;23.20;99.90;;;;;;5037717;28;20033;-76
2022/03/29 06:45:20;;;;;;;10.07;4.97;;;23.20;99.90;;;;;;5055551;28;20024;-75
2022/03/29 06:47:48;;;;;;;21.58;12.10;;;23.20;99.90;;;;;;5055275;28;20445;-75
2022/03/29 06:50:16;;;;;;;11.88;6.03;;;23.10;99.90;;;;;;5037497;28;20541;-76
2022/03/29 06:52:45;;;;;;;9.63;4.47;;;23.10;99.90;;;;;;5037406;28;20477;-75
2022/03/29 06:55:14;;;;;;;12.20;4.55;;;23.10;99.90;;;;;;5055366;28;20423;-75
2022/03/29 06:57:43;;;;;;;10.65;5.65;;;23.10;99.90;;;;;;5055310;28;20384;-76
2022/03/29 07:00:11;;;;;;;11.55;4.25;;;23.10;99.90;;;;;;5037367;28;20098;-76
2022/03/29 07:02:39;;;;;;;6.75;2.30;;;23.00;99.90;;;;;;5055249;28;20100;-76
2022/03/29 07:05:07;;;;;;;9.25;2.00;;;22.90;99.90;;;;;;5037268;28;20025;-76
2022/03/29 07:07:34;;;;;;;8.45;2.45;;;22.80;99.90;;;;;;5037256;28;20032;-77
2022/03/29 07:12:49;;;;;;;9.02;2.50;;;22.60;99.90;;;;;;5055260;28;20064;-75
2022/03/29 07:15:18;;;;;;;7.75;2.33;;;22.60;99.90;;;;;;5055060;28;20032;-75
2022/03/29 07:17:48;;;;;;;6.18;1.83;;;22.50;99.90;;;;;;5054734;28;20128;-75
2022/03/29 07:20:19;;;;;;;9.43;1.80;;;22.40;99.90;;;;;;5036958;28;20033;-75
2022/03/29 07:22:48;;;;;;;8.60;2.55;;;22.30;99.90;;;;;;5036905;28;20025;-74
2022/03/29 07:25:18;;;;;;;8.75;2.67;;;22.20;99.90;;;;;;5054937;28;20017;-76
2022/03/29 07:27:46;;;;;;;9.15;2.30;;;22.20;99.90;;;;;;5054614;28;20482;-76
2022/03/29 07:30:14;;;;;;;8.77;1.85;;;22.10;99.90;;;;;;5054900;28;20040;-76
2022/03/29 07:32:47;;;;;;;6.78;2.78;;;22.00;99.90;;;;;;5036650;28;20077;-77
2022/03/29 07:35:16;;;;;;;9.63;2.72;;;22.00;99.90;;;;;;5053515;28;20027;-76
2022/03/29 07:37:43;;;;;;;9.55;2.50;;;21.90;99.90;;;;;;5054633;28;20028;-77
2022/03/29 07:40:15;;;;;;;10.65;2.03;;;21.80;99.90;;;;;;5036654;28;20037;-77
2022/03/29 07:42:43;;;;;;;7.07;2.45;;;21.80;99.90;;;;;;5054514;28;20482;-76
2022/03/29 07:45:12;;;;;;;7.85;1.70;;;21.80;99.90;;;;;;5054412;28;20347;-77
2022/03/29 07:47:43;;;;;;;9.55;2.67;;;21.70;99.90;;;;;;5054354;28;20022;-75
2022/03/29 07:50:12;;;;;;;11.85;2.67;;;21.80;99.90;;;;;;5054716;28;20507;-77
2022/03/29 07:52:41;;;;;;;8.82;2.35;;;21.70;99.90;;;;;;5036397;28;20549;-76
2022/03/29 07:55:10;;;;;;;8.27;2.13;;;21.70;99.90;;;;;;5054407;28;20374;-75
2022/03/29 07:57:39;;;;;;;10.77;2.55;;;21.50;99.90;;;;;;5054153;28;20031;-75
2022/03/29 08:02:54;;;;;;;8.55;1.73;;;21.40;99.90;;;;;;5054412;28;20039;-76
2022/03/29 08:05:22;;;;;;;9.77;2.15;;;21.40;99.90;;;;;;5035831;28;20139;-76
2022/03/29 08:07:49;;;;;;;7.40;1.60;;;21.30;99.90;;;;;;5036048;28;20030;-76
2022/03/29 08:10:17;;;;;;;7.40;1.80;;;21.30;99.90;;;;;;5054137;28;20016;-77
2022/03/29 08:12:45;;;;;;;10.15;2.63;;;21.30;99.90;;;;;;5036236;28;20029;-75
2022/03/29 08:15:13;;;;;;;8.88;1.98;;;21.20;99.90;;;;;;5036113;28;20024;-76
2022/03/29 08:17:40;;;;;;;7.07;1.73;;;21.20;99.90;;;;;;5036004;28;20049;-78
2022/03/29 08:20:08;;;;;;;7.00;1.75;;;21.20;99.90;;;;;;5036084;28;20025;-76
2022/03/29 08:22:36;;;;;;;7.63;1.75;;;21.20;99.90;;;;;;5053969;28;20057;-77
2022/03/29 08:25:04;;;;;;;8.20;1.92;;;21.20;99.90;;;;;;5053849;28;20051;-78
2022/03/29 08:27:32;;;;;;;7.88;2.05;;;21.20;99.90;;;;;;5053802;28;20036;-78
2022/03/29 08:29:59;;;;;;;10.25;2.38;;;21.20;99.90;;;;;;5035920;28;20017;-76
2022/03/29 08:32:27;;;;;;;7.32;2.38;;;21.20;99.90;;;;;;5035833;28;20401;-79
2022/03/29 08:34:54;;;;;;;10.27;2.50;;;21.20;99.90;;;;;;5036195;28;20021;-79
2022/03/29 08:37:23;;;;;;;8.88;2.03;;;21.10;99.90;;;;;;5053863;28;20630;-78
2022/03/29 08:39:50;;;;;;;7.07;2.10;;;21.10;99.90;;;;;;5054289;28;20377;-80
2022/03/29 08:42:18;;;;;;;8.93;3.00;;;21.00;99.90;;;;;;5054100;28;20032;-80
2022/03/29 08:44:46;;;;;;;9.27;2.42;;;21.00;99.90;;;;;;5035640;28;20025;-77
2022/03/29 08:47:17;;;;;;;9.07;2.38;;;21.00;99.90;;;;;;5035363;28;20025;-78
2022/03/29 08:49:48;;;;;;;9.93;3.40;;;21.00;99.90;;;;;;5053518;28;20032;-78
2022/03/29 08:52:20;;;;;;;10.38;3.50;;;21.00;99.90;;;;;;5035538;28;20483;-78
2022/03/29 08:54:49;;;;;;;9.57;3.28;;;21.00;99.90;;;;;;5053515;28;20071;-78
2022/03/29 08:57:16;;;;;;;8.30;3.58;;;21.00;99.90;;;;;;5053262;28;20071;-79
2022/03/29 08:59:43;;;;;;;7.43;3.15;;;21.00;99.90;;;;;;5053407;28;20055;-77
2022/03/29 09:02:13;;;;;;;10.18;3.85;;;21.00;99.90;;;;;;5053301;28;20486;-76
2022/03/29 09:04:40;;;;;;;11.45;4.22;;;21.00;99.90;;;;;;5053159;28;20435;-77
2022/03/29 09:07:08;;;;;;;8.15;3.60;;;21.00;99.90;;;;;;5053035;28;20385;-76
2022/03/29 09:09:37;;;;;;;11.38;3.92;;;20.90;99.90;;;;;;5053118;28;20021;-76
2022/03/29 09:12:17;;;;;;;7.97;3.80;;;20.90;99.90;;;;;;5053049;28;20086;-76
2022/03/29 09:15:02;;;;;;;8.70;3.88;;;20.90;99.90;;;;;;5035180;28;20113;-76
2022/03/29 09:17:34;;;;;;;8.02;4.85;;;20.90;99.90;;;;;;5052800;28;20103;-76
2022/03/29 09:20:11;;;;;;;8.45;4.63;;;20.90;99.90;;;;;;5053000;28;20559;-76
2022/03/29 09:22:48;;;;;;;12.88;5.47;;;20.90;99.90;;;;;;5052980;28;20367;-78
2022/03/29 09:25:18;;;;;;;11.80;4.80;;;20.90;99.90;;;;;;5052999;28;20027;-77
2022/03/29 09:27:49;;;;;;;;;;;20.90;99.90;;;;;;5035240;28;20029;-79
2022/03/29 09:30:16;;;;;;;;;;;20.90;99.90;;;;;;5053203;28;19911;-77
2022/03/29 09:33:00;;;;;;;10.10;5.15;;;20.80;99.90;;;;;;5052702;28;19905;-77
2022/03/29 09:35:30;;;;;;;12.73;4.28;;;20.90;99.90;;;;;;5034816;28;20052;-77
2022/03/29 09:37:58;;;;;;;13.32;4.15;;;20.80;99.90;;;;;;5034719;28;20036;-78
2022/03/29 09:40:38;;;;;;;10.40;4.00;;;20.80;99.90;;;;;;5052313;28;20380;-77
2022/03/29 09:43:10;;;;;;;9.65;4.45;;;20.80;99.90;;;;;;5034407;28;20025;-77
2022/03/29 09:45:50;;;;;;;12.05;4.82;;;20.80;99.90;;;;;;5034422;28;20119;-78
2022/03/29 09:48:24;;;;;;;14.35;5.07;;;20.80;99.90;;;;;;5034308;28;20056;-77
2022/03/29 09:51:03;;;;;;;12.00;4.65;;;20.80;99.90;;;;;;5052495;28;20075;-79
2022/03/29 09:53:55;;;;;;;14.23;5.55;;;20.80;99.90;;;;;;5052439;28;20021;-78
2022/03/29 09:56:26;;;;;;;14.73;4.85;;;20.80;99.90;;;;;;5034493;28;20033;-76
2022/03/29 09:59:13;;;;;;;10.68;4.57;;;20.80;99.90;;;;;;5051603;28;20019;-77
2022/03/29 10:01:53;;;;;;;14.05;4.78;;;20.80;99.90;;;;;;5052352;28;20025;-76
2022/03/29 10:04:23;;;;;;;14.50;5.13;;;20.80;99.90;;;;;;5052332;28;20066;-78
2022/03/29 10:06:53;;;;;;;11.48;4.30;;;20.80;99.90;;;;;;5052209;28;20029;-79
2022/03/29 10:09:27;;;;;;;14.88;4.88;;;20.70;99.90;;;;;;5052241;28;20021;-77
2022/03/29 10:12:13;;;;;;;12.85;4.80;;;20.70;99.90;;;;;;5034263;28;20111;-77
2022/03/29 10:14:42;;;;;;;19.35;6.80;;;20.60;99.90;;;;;;5034415;28;20075;-79
2022/03/29 10:17:10;;;;;;;17.15;5.55;;;20.60;99.90;;;;;;5034224;28;20053;-79
2022/03/29 10:19:41;;;;;;;15.32;4.82;;;20.50;99.90;;;;;;5034278;28;20024;-77
2022/03/29 10:22:08;;;;;;;17.30;4.82;;;20.50;99.90;;;;;;5052200;28;20032;-78
2022/03/29 10:24:37;;;;;;;15.45;4.72;;;20.40;99.90;;;;;;5052162;28;20037;-78
2022/03/29 10:27:05;;;;;;;18.23;4.72;;;20.40;99.90;;;;;;5052099;28;20385;-78
2022/03/29 10:29:35;;;;;;;16.02;4.47;;;20.40;99.90;;;;;;5052109;28;20032;-77
2022/03/29 10:32:07;;;;;;;12.57;4.28;;;20.30;99.90;;;;;;5052064;28;20025;-79
2022/03/29 10:34:42;;;;;;;14.35;4.38;;;20.30;99.90;;;;;;5052053;28;20083;-78
2022/03/29 10:37:18;;;;;;;12.70;4.25;;;20.30;99.90;;;;;;5033963;28;20032;-79
2022/03/29 10:40:00;;;;;;;12.25;3.90;;;20.30;99.90;;;;;;5052046;28;20033;-78
2022/03/29 10:42:32;;;;;;;10.73;4.18;;;20.20;99.90;;;;;;5034134;28;20604;-77
2022/03/29 10:45:11;;;;;;;14.95;4.63;;;20.30;99.90;;;;;;5051881;28;20021;-76
2022/03/29 10:47:39;;;;;;;13.05;3.92;;;20.30;99.90;;;;;;5033966;28;20397;-78
2022/03/29 10:50:11;;;;;;;12.30;4.32;;;20.30;99.90;;;;;;5051936;28;20083;-77
2022/03/29 10:52:44;;;;;;;16.25;4.55;;;20.30;99.90;;;;;;5033871;28;20039;-78
2022/03/29 10:55:33;;;;;;;13.77;4.35;;;20.30;99.90;;;;;;5051853;28;20040;-77
2022/03/29 10:58:16;;;;;;;20.65;5.57;;;20.20;99.90;;;;;;5051973;28;20131;-77
2022/03/29 11:00:47;;;;;;;11.85;5.68;;;20.30;99.90;;;;;;5051843;28;20485;-78
2022/03/29 11:03:21;;;;;;;12.90;5.85;;;20.20;99.90;;;;;;5051854;28;20028;-78
2022/03/29 11:06:10;;;;;;;12.70;5.55;;;20.20;99.90;;;;;;5051859;28;20028;-77
2022/03/29 11:09:03;;;;;;;9.88;4.93;;;20.30;99.90;;;;;;5051762;28;20028;-79
2022/03/29 11:11:39;;;;;;;9.77;4.82;;;20.20;99.90;;;;;;5034235;28;20076;-78
2022/03/29 11:14:35;;;;;;;12.70;4.70;;;20.30;99.90;;;;;;5055343;28;20017;-77
2022/03/29 11:17:11;;;;;;;8.23;4.22;;;20.30;99.90;;;;;;5048635;28;20049;-77
2022/03/29 11:19:49;;;;;;;9.75;4.82;;;20.30;99.90;;;;;;5055323;28;20481;-77
2022/03/29 11:22:42;;;;;;;11.55;3.63;;;20.30;99.90;;;;;;5037365;28;20086;-77
2022/03/29 11:25:14;;;;;;;8.43;3.10;;;20.40;99.90;;;;;;5055148;28;20025;-77
2022/03/29 11:27:42;;;;;;;5.60;2.78;;;20.30;99.90;;;;;;5037060;28;20037;-77
2022/03/29 11:30:12;;;;;;;6.80;2.33;;;20.40;99.90;;;;;;5055107;28;20017;-76
2022/03/29 11:32:45;;;;;;;6.18;2.50;;;20.30;99.90;;;;;;5037115;28;20017;-77
2022/03/29 11:35:15;;;;;;;8.90;2.35;;;20.40;99.90;;;;;;5037010;28;20036;-76
2022/03/29 11:37:44;;;;;;;11.20;3.15;;;20.30;99.90;;;;;;5054878;28;20025;-76
2022/03/29 11:40:14;;;;;;;10.10;2.13;;;20.30;99.90;;;;;;5054833;28;20068;-77
2022/03/29 11:42:50;;;;;;;9.40;2.40;;;20.30;99.90;;;;;;5036959;28;20032;-76
2022/03/29 11:45:19;;;;;;;10.40;3.00;;;20.20;99.90;;;;;;5036718;28;20262;-76
2022/03/29 11:48:03;;;;;;;12.88;3.00;;;20.20;99.90;;;;;;5036678;28;20082;-76
2022/03/29 11:50:53;;;;;;;10.57;2.70;;;20.10;99.90;;;;;;5054685;28;20051;-76
2022/03/29 11:53:27;;;;;;;8.18;2.20;;;20.20;99.90;;;;;;5036737;28;20097;-77
2022/03/29 11:55:55;;;;;;;11.10;2.30;;;20.10;99.90;;;;;;5054530;28;20201;-77
2022/03/29 11:58:25;;;;;;;10.93;2.38;;;20.10;99.90;;;;;;5036465;28;20025;-77
2022/03/29 12:00:56;;;;;;;11.50;2.53;;;20.10;99.90;;;;;;5036574;28;20489;-76
2022/03/29 12:03:33;;;;;;;9.30;2.28;;;20.00;99.90;;;;;;5054359;28;20029;-77
2022/03/29 12:06:22;;;;;;;7.85;2.05;;;20.00;99.90;;;;;;5054387;28;20032;-77
2022/03/29 12:08:58;;;;;;;10.27;1.90;;;19.90;99.90;;;;;;5054362;28;20021;-76
2022/03/29 12:11:30;;;;;;;9.30;2.17;;;19.90;99.90;;;;;;5054257;28;20567;-76
2022/03/29 12:14:07;;;;;;;7.47;1.80;;;19.80;99.90;;;;;;5036219;28;20028;-77
2022/03/29 12:16:38;;;;;;;7.80;1.50;;;19.80;99.90;;;;;;5053985;28;20121;-76
2022/03/29 12:19:14;;;;;;;9.82;1.90;;;19.70;99.90;;;;;;5054132;28;20039;-76
2022/03/29 12:21:48;;;;;;;8.18;2.42;;;19.70;99.90;;;;;;5053300;28;20025;-76
2022/03/29 12:24:17;;;;;;;8.10;1.83;;;19.70;99.90;;;;;;5054044;28;20381;-76
2022/03/29 12:26:53;;;;;;;8.07;1.90;;;19.70;99.90;;;;;;5053873;28;20025;-76
2022/03/29 12:29:25;;;;;;;8.70;2.00;;;19.60;99.90;;;;;;5036078;28;20393;-76
2022/03/29 12:31:54;;;;;;;7.63;1.90;;;19.60;99.90;;;;;;5053858;28;20060;-76
2022/03/29 12:34:30;;;;;;;10.65;2.15;;;19.50;99.90;;;;;;5035774;28;20025;-76
2022/03/29 12:37:03;;;;;;;10.00;2.10;;;19.50;99.90;;;;;;5053843;28;20055;-76
2022/03/29 12:39:37;;;;;;;11.00;1.77;;;19.50;99.90;;;;;;5053693;28;20033;-76
2022/03/29 12:42:09;;;;;;;3.60;1.27;;;19.40;99.90;;;;;;5053751;28;20330;-76
2022/03/29 12:44:43;;;;;;;9.05;1.90;;;19.40;99.90;;;;;;5053657;28;20024;-77
2022/03/29 12:47:11;;;;;;;8.57;1.85;;;19.40;99.90;;;;;;5053444;28;20121;-77
2022/03/29 12:49:41;;;;;;;7.80;1.65;;;19.40;99.90;;;;;;5053524;28;20486;-76
2022/03/29 12:52:10;;;;;;;11.45;2.38;;;19.40;99.90;;;;;;5053588;28;20021;-76
2022/03/29 12:54:41;;;;;;;7.22;2.17;;;19.30;99.90;;;;;;5035418;28;20051;-76
2022/03/29 12:57:09;;;;;;;;;;;19.40;99.90;;;;;;5053851;28;20029;-77
2022/03/29 12:59:40;;;;;;;6.38;1.50;;;19.40;99.90;;;;;;5035472;28;19919;-76
2022/03/29 13:02:13;;;;;;;5.05;1.30;;;19.30;99.90;;;;;;5053399;28;20100;-74
2022/03/29 13:04:42;;;;;;;6.82;1.58;;;19.30;99.90;;;;;;5053194;28;20029;-74
2022/03/29 13:07:10;;;;;;;5.32;1.60;;;19.30;99.90;;;;;;5053073;28;20025;-76
2022/03/29 13:09:38;;;;;;;6.50;1.83;;;19.30;99.90;;;;;;5035115;28;20031;-77